sensor_id;sensor_type;location;lat;lon;timestamp;P1;durP1;ratioP1;P2;durP2;ratioP2
3791;SDS011;1911;53.768;11.474;2023-02-15T01:49:38;42.92;;;18.48;;
3791;SDS011;1911;53.768;11.474;2023-02-15T01:52:07;49.47;;;19.08;;
3791;SDS011;1911;53.768;11.474;2023-02-15T01:54:35;49.67;;;18.98;;
3791;SDS011;1911;53.768;11.474;2023-02-15T01:57:25;41.17;;;19.35;;
3791;SDS011;1911;53.768;11.474;2023-02-15T01:59:52;50.22;;;20.38;;
3791;SDS011;1911;53.768;11.474;2023-02-15T02:05:20;40.25;;;19.10;;
3791;SDS011;1911;53.768;11.474;2023-02-15T02:07:46;49.17;;;20.90;;
3791;SDS011;1911;53.768;11.474;2023-02-15T02:10:15;51.80;;;21.33;;
3791;SDS011;1911;53.768;11.474;2023-02-15T02:12:42;42.55;;;20.02;;
3791;SDS011;1911;53.768;11.474;2023-02-15T02:15:10;48.67;;;22.02;;
3791;SDS011;1911;53.768;11.474;2023-02-15T02:28:56;49.90;;;20.45;;
3791;SDS011;1911;53.768;11.474;2023-02-15T02:37:30;55.30;;;20.35;;
3791;SDS011;1911;53.768;11.474;2023-02-15T02:43:05;53.05;;;20.02;;
3791;SDS011;1911;53.768;11.474;2023-02-15T02:45:40;47.60;;;18.75;;
3791;SDS011;1911;53.768;11.474;2023-02-15T02:48:16;50.38;;;20.63;;
3791;SDS011;1911;53.768;11.474;2023-02-15T02:50:49;51.15;;;19.85;;
3791;SDS011;1911;53.768;11.474;2023-02-15T02:53:15;48.33;;;19.60;;
3791;SDS011;1911;53.768;11.474;2023-02-15T02:55:42;45.40;;;19.43;;
3791;SDS011;1911;53.768;11.474;2023-02-15T02:58:26;47.55;;;19.85;;
3791;SDS011;1911;53.768;11.474;2023-02-15T03:01:09;48.20;;;19.60;;
3791;SDS011;1911;53.768;11.474;2023-02-15T03:03:37;41.90;;;19.23;;
3791;SDS011;1911;53.768;11.474;2023-02-15T03:06:10;51.65;;;22.40;;
3791;SDS011;1911;53.768;11.474;2023-02-15T03:08:44;52.65;;;20.45;;
3791;SDS011;1911;53.768;11.474;2023-02-15T03:11:13;53.85;;;20.85;;
3791;SDS011;1911;53.768;11.474;2023-02-15T03:13:39;55.50;;;22.30;;
3791;SDS011;1911;53.768;11.474;2023-02-15T03:16:06;58.65;;;21.67;;
3791;SDS011;1911;53.768;11.474;2023-02-15T03:18:53;55.08;;;19.77;;
3791;SDS011;1911;53.768;11.474;2023-02-15T03:21:42;50.30;;;20.48;;
3791;SDS011;1911;53.768;11.474;2023-02-15T03:24:22;48.60;;;19.60;;
3791;SDS011;1911;53.768;11.474;2023-02-15T03:26:51;51.85;;;21.42;;
3791;SDS011;1911;53.768;11.474;2023-02-15T03:29:19;58.80;;;21.40;;
3791;SDS011;1911;53.768;11.474;2023-02-15T03:31:47;51.58;;;21.23;;
3791;SDS011;1911;53.768;11.474;2023-02-15T03:34:16;50.53;;;20.58;;
3791;SDS011;1911;53.768;11.474;2023-02-15T03:36:53;53.58;;;22.75;;
3791;SDS011;1911;53.768;11.474;2023-02-15T03:40:02;52.00;;;22.02;;
3791;SDS011;1911;53.768;11.474;2023-02-15T03:43:00;57.78;;;22.90;;
3791;SDS011;1911;53.768;11.474;2023-02-15T03:45:48;57.58;;;21.65;;
3791;SDS011;1911;53.768;11.474;2023-02-15T03:48:31;52.50;;;21.25;;
3791;SDS011;1911;53.768;11.474;2023-02-15T03:51:08;51.85;;;21.35;;
3791;SDS011;1911;53.768;11.474;2023-02-15T03:53:56;56.92;;;21.45;;
3791;SDS011;1911;53.768;11.474;2023-02-15T03:56:23;60.33;;;22.08;;
3791;SDS011;1911;53.768;11.474;2023-02-15T03:58:49;60.25;;;23.70;;
3791;SDS011;1911;53.768;11.474;2023-02-15T04:01:40;54.38;;;23.20;;
3791;SDS011;1911;53.768;11.474;2023-02-15T04:04:25;49.40;;;21.15;;
3791;SDS011;1911;53.768;11.474;2023-02-15T04:06:52;62.25;;;22.77;;
3791;SDS011;1911;53.768;11.474;2023-02-15T04:09:17;50.93;;;21.07;;
3791;SDS011;1911;53.768;11.474;2023-02-15T04:12:02;57.08;;;20.90;;
3791;SDS011;1911;53.768;11.474;2023-02-15T04:14:27;63.33;;;24.70;;
3791;SDS011;1911;53.768;11.474;2023-02-15T04:17:12;61.80;;;22.67;;
3791;SDS011;1911;53.768;11.474;2023-02-15T04:19:38;66.67;;;24.30;;
3791;SDS011;1911;53.768;11.474;2023-02-15T04:22:22;59.17;;;22.38;;
3791;SDS011;1911;53.768;11.474;2023-02-15T04:25:06;57.58;;;22.60;;
3791;SDS011;1911;53.768;11.474;2023-02-15T04:27:36;62.35;;;23.75;;
3791;SDS011;1911;53.768;11.474;2023-02-15T04:30:02;63.90;;;24.23;;
3791;SDS011;1911;53.768;11.474;2023-02-15T04:32:28;65.10;;;24.52;;
3791;SDS011;1911;53.768;11.474;2023-02-15T04:34:54;56.70;;;23.83;;
3791;SDS011;1911;53.768;11.474;2023-02-15T04:37:19;62.10;;;24.40;;
3791;SDS011;1911;53.768;11.474;2023-02-15T04:39:45;68.43;;;23.57;;
3791;SDS011;1911;53.768;11.474;2023-02-15T04:42:11;64.77;;;23.10;;
3791;SDS011;1911;53.768;11.474;2023-02-15T04:44:36;61.33;;;25.23;;
3791;SDS011;1911;53.768;11.474;2023-02-15T04:47:02;62.57;;;23.47;;
3791;SDS011;1911;53.768;11.474;2023-02-15T04:49:28;55.77;;;24.07;;
3791;SDS011;1911;53.768;11.474;2023-02-15T04:51:53;55.47;;;21.33;;
3791;SDS011;1911;53.768;11.474;2023-02-15T04:54:19;64.37;;;24.10;;
3791;SDS011;1911;53.768;11.474;2023-02-15T04:56:44;61.50;;;24.97;;
3791;SDS011;1911;53.768;11.474;2023-02-15T04:59:10;60.90;;;22.20;;
3791;SDS011;1911;53.768;11.474;2023-02-15T05:01:36;64.10;;;24.05;;
3791;SDS011;1911;53.768;11.474;2023-02-15T05:04:02;59.37;;;22.07;;
3791;SDS011;1911;53.768;11.474;2023-02-15T05:06:27;63.57;;;23.87;;
3791;SDS011;1911;53.768;11.474;2023-02-15T05:08:53;65.27;;;24.23;;
3791;SDS011;1911;53.768;11.474;2023-02-15T05:11:19;60.60;;;23.77;;
3791;SDS011;1911;53.768;11.474;2023-02-15T05:13:44;75.77;;;26.00;;
3791;SDS011;1911;53.768;11.474;2023-02-15T05:16:10;57.13;;;22.33;;
3791;SDS011;1911;53.768;11.474;2023-02-15T05:18:35;56.07;;;22.33;;
3791;SDS011;1911;53.768;11.474;2023-02-15T05:21:01;50.73;;;21.37;;
3791;SDS011;1911;53.768;11.474;2023-02-15T05:23:26;54.50;;;22.67;;
3791;SDS011;1911;53.768;11.474;2023-02-15T05:25:52;57.27;;;24.07;;
3791;SDS011;1911;53.768;11.474;2023-02-15T05:28:36;56.80;;;25.20;;
3791;SDS011;1911;53.768;11.474;2023-02-15T05:31:07;70.30;;;25.42;;
3791;SDS011;1911;53.768;11.474;2023-02-15T05:33:35;60.28;;;23.65;;
3791;SDS011;1911;53.768;11.474;2023-02-15T05:36:01;61.57;;;23.87;;
3791;SDS011;1911;53.768;11.474;2023-02-15T05:38:27;63.55;;;24.50;;
3791;SDS011;1911;53.768;11.474;2023-02-15T05:40:53;59.13;;;22.27;;
3791;SDS011;1911;53.768;11.474;2023-02-15T05:43:19;71.73;;;23.43;;
3791;SDS011;1911;53.768;11.474;2023-02-15T05:45:49;65.13;;;24.93;;
3791;SDS011;1911;53.768;11.474;2023-02-15T05:48:16;63.53;;;23.52;;
3791;SDS011;1911;53.768;11.474;2023-02-15T05:50:42;59.08;;;21.27;;
3791;SDS011;1911;53.768;11.474;2023-02-15T05:53:08;59.47;;;23.27;;
3791;SDS011;1911;53.768;11.474;2023-02-15T05:55:34;60.23;;;20.70;;
3791;SDS011;1911;53.768;11.474;2023-02-15T05:58:03;69.93;;;25.80;;
3791;SDS011;1911;53.768;11.474;2023-02-15T06:00:29;64.43;;;25.10;;
3791;SDS011;1911;53.768;11.474;2023-02-15T06:02:54;61.63;;;23.53;;
3791;SDS011;1911;53.768;11.474;2023-02-15T06:05:20;62.13;;;24.47;;
3791;SDS011;1911;53.768;11.474;2023-02-15T06:07:46;46.03;;;21.80;;
3791;SDS011;1911;53.768;11.474;2023-02-15T06:10:11;60.23;;;24.40;;
3791;SDS011;1911;53.768;11.474;2023-02-15T06:12:37;60.87;;;22.60;;
3791;SDS011;1911;53.768;11.474;2023-02-15T06:15:03;55.97;;;24.97;;
3791;SDS011;1911;53.768;11.474;2023-02-15T06:17:29;54.75;;;22.48;;
3791;SDS011;1911;53.768;11.474;2023-02-15T06:19:55;58.10;;;22.70;;
3791;SDS011;1911;53.768;11.474;2023-02-15T06:22:20;56.43;;;23.77;;
3791;SDS011;1911;53.768;11.474;2023-02-15T06:24:46;72.70;;;26.40;;
3791;SDS011;1911;53.768;11.474;2023-02-15T06:27:12;77.47;;;24.47;;
3791;SDS011;1911;53.768;11.474;2023-02-15T06:29:38;67.30;;;23.37;;
3791;SDS011;1911;53.768;11.474;2023-02-15T06:32:03;59.63;;;24.60;;
3791;SDS011;1911;53.768;11.474;2023-02-15T06:34:29;73.63;;;26.42;;
3791;SDS011;1911;53.768;11.474;2023-02-15T06:36:55;60.60;;;25.10;;
3791;SDS011;1911;53.768;11.474;2023-02-15T06:39:21;61.77;;;22.23;;
3791;SDS011;1911;53.768;11.474;2023-02-15T06:41:46;53.03;;;21.27;;
3791;SDS011;1911;53.768;11.474;2023-02-15T06:44:12;52.37;;;20.17;;
3791;SDS011;1911;53.768;11.474;2023-02-15T06:46:37;69.60;;;25.93;;
3791;SDS011;1911;53.768;11.474;2023-02-15T06:49:03;55.53;;;22.90;;
3791;SDS011;1911;53.768;11.474;2023-02-15T06:51:29;52.07;;;21.97;;
3791;SDS011;1911;53.768;11.474;2023-02-15T06:53:54;64.87;;;23.60;;
3791;SDS011;1911;53.768;11.474;2023-02-15T06:56:20;69.70;;;24.50;;
3791;SDS011;1911;53.768;11.474;2023-02-15T06:58:45;52.37;;;22.00;;
3791;SDS011;1911;53.768;11.474;2023-02-15T07:01:13;61.83;;;20.80;;
3791;SDS011;1911;53.768;11.474;2023-02-15T07:03:39;51.97;;;21.90;;
3791;SDS011;1911;53.768;11.474;2023-02-15T07:06:04;54.77;;;23.27;;
3791;SDS011;1911;53.768;11.474;2023-02-15T07:08:33;56.60;;;21.92;;
3791;SDS011;1911;53.768;11.474;2023-02-15T07:11:03;59.75;;;23.60;;
3791;SDS011;1911;53.768;11.474;2023-02-15T07:13:48;56.05;;;22.58;;
3791;SDS011;1911;53.768;11.474;2023-02-15T07:16:13;62.23;;;23.83;;
3791;SDS011;1911;53.768;11.474;2023-02-15T07:18:39;55.87;;;24.90;;
3791;SDS011;1911;53.768;11.474;2023-02-15T07:21:06;53.35;;;22.77;;
3791;SDS011;1911;53.768;11.474;2023-02-15T07:23:38;49.40;;;23.15;;
3791;SDS011;1911;53.768;11.474;2023-02-15T07:26:05;54.92;;;21.42;;
3791;SDS011;1911;53.768;11.474;2023-02-15T07:28:32;58.92;;;22.85;;
3791;SDS011;1911;53.768;11.474;2023-02-15T07:30:57;53.17;;;21.77;;
3791;SDS011;1911;53.768;11.474;2023-02-15T07:33:23;52.80;;;21.67;;
3791;SDS011;1911;53.768;11.474;2023-02-15T07:35:58;49.63;;;21.47;;
3791;SDS011;1911;53.768;11.474;2023-02-15T07:38:27;40.13;;;19.27;;
3791;SDS011;1911;53.768;11.474;2023-02-15T07:40:59;46.58;;;19.60;;
3791;SDS011;1911;53.768;11.474;2023-02-15T07:43:25;54.17;;;22.55;;
3791;SDS011;1911;53.768;11.474;2023-02-15T07:45:52;54.88;;;20.70;;
3791;SDS011;1911;53.768;11.474;2023-02-15T07:48:17;53.03;;;21.10;;
3791;SDS011;1911;53.768;11.474;2023-02-15T07:50:44;46.72;;;21.17;;
3791;SDS011;1911;53.768;11.474;2023-02-15T07:53:09;48.40;;;21.90;;
3791;SDS011;1911;53.768;11.474;2023-02-15T07:55:35;49.23;;;21.20;;
3791;SDS011;1911;53.768;11.474;2023-02-15T07:58:01;46.00;;;21.40;;
3791;SDS011;1911;53.768;11.474;2023-02-15T08:00:27;64.38;;;23.90;;
3791;SDS011;1911;53.768;11.474;2023-02-15T08:02:55;58.78;;;23.48;;
3791;SDS011;1911;53.768;11.474;2023-02-15T08:05:40;52.67;;;23.25;;
3791;SDS011;1911;53.768;11.474;2023-02-15T08:08:07;61.20;;;21.85;;
3791;SDS011;1911;53.768;11.474;2023-02-15T08:10:34;56.10;;;21.40;;
3791;SDS011;1911;53.768;11.474;2023-02-15T08:13:19;51.43;;;20.30;;
3791;SDS011;1911;53.768;11.474;2023-02-15T08:15:51;47.17;;;19.50;;
3791;SDS011;1911;53.768;11.474;2023-02-15T08:18:16;58.63;;;22.85;;
3791;SDS011;1911;53.768;11.474;2023-02-15T08:20:42;59.50;;;21.03;;
3791;SDS011;1911;53.768;11.474;2023-02-15T08:23:13;48.33;;;19.88;;
3791;SDS011;1911;53.768;11.474;2023-02-15T08:25:39;69.32;;;22.08;;
3791;SDS011;1911;53.768;11.474;2023-02-15T08:28:05;61.13;;;20.37;;
3791;SDS011;1911;53.768;11.474;2023-02-15T08:30:30;73.47;;;23.07;;
3791;SDS011;1911;53.768;11.474;2023-02-15T08:32:56;82.43;;;20.60;;
3791;SDS011;1911;53.768;11.474;2023-02-15T08:35:21;70.00;;;18.87;;
3791;SDS011;1911;53.768;11.474;2023-02-15T08:37:47;86.87;;;21.67;;
3791;SDS011;1911;53.768;11.474;2023-02-15T08:40:12;44.60;;;17.30;;
3791;SDS011;1911;53.768;11.474;2023-02-15T08:42:38;75.03;;;22.10;;
3791;SDS011;1911;53.768;11.474;2023-02-15T08:45:04;77.43;;;23.10;;
3791;SDS011;1911;53.768;11.474;2023-02-15T08:47:30;73.10;;;21.90;;
3791;SDS011;1911;53.768;11.474;2023-02-15T08:49:55;76.30;;;23.50;;
3791;SDS011;1911;53.768;11.474;2023-02-15T08:52:21;83.43;;;22.13;;
3791;SDS011;1911;53.768;11.474;2023-02-15T08:54:46;73.10;;;23.93;;
3791;SDS011;1911;53.768;11.474;2023-02-15T08:57:12;86.30;;;24.50;;
3791;SDS011;1911;53.768;11.474;2023-02-15T08:59:37;88.83;;;25.47;;
3791;SDS011;1911;53.768;11.474;2023-02-15T09:02:03;78.03;;;23.50;;
3791;SDS011;1911;53.768;11.474;2023-02-15T09:04:29;60.70;;;22.33;;
3791;SDS011;1911;53.768;11.474;2023-02-15T09:06:54;58.40;;;21.37;;
3791;SDS011;1911;53.768;11.474;2023-02-15T09:09:20;72.33;;;24.47;;
3791;SDS011;1911;53.768;11.474;2023-02-15T09:11:47;97.03;;;23.90;;
3791;SDS011;1911;53.768;11.474;2023-02-15T09:14:15;109.82;;;24.70;;
3791;SDS011;1911;53.768;11.474;2023-02-15T09:16:44;87.72;;;20.80;;
3791;SDS011;1911;53.768;11.474;2023-02-15T09:19:13;79.03;;;23.45;;
3791;SDS011;1911;53.768;11.474;2023-02-15T09:21:39;124.78;;;22.90;;
3791;SDS011;1911;53.768;11.474;2023-02-15T09:24:06;69.40;;;19.50;;
3791;SDS011;1911;53.768;11.474;2023-02-15T09:26:34;103.47;;;24.88;;
3791;SDS011;1911;53.768;11.474;2023-02-15T09:29:02;96.20;;;19.85;;
3791;SDS011;1911;53.768;11.474;2023-02-15T09:31:42;77.20;;;20.88;;
3791;SDS011;1911;53.768;11.474;2023-02-15T09:34:14;86.50;;;21.50;;
3791;SDS011;1911;53.768;11.474;2023-02-15T09:36:41;81.32;;;22.75;;
3791;SDS011;1911;53.768;11.474;2023-02-15T09:39:09;87.55;;;23.65;;
3791;SDS011;1911;53.768;11.474;2023-02-15T09:49:36;78.50;;;24.40;;
3791;SDS011;1911;53.768;11.474;2023-02-15T09:52:13;92.30;;;21.05;;
3791;SDS011;1911;53.768;11.474;2023-02-15T09:55:08;49.58;;;19.08;;
3791;SDS011;1911;53.768;11.474;2023-02-15T10:00:42;64.43;;;20.15;;
3791;SDS011;1911;53.768;11.474;2023-02-15T10:08:24;42.60;;;17.60;;
3791;SDS011;1911;53.768;11.474;2023-02-15T10:25:36;50.77;;;17.17;;
3791;SDS011;1911;53.768;11.474;2023-02-15T10:28:17;65.20;;;17.27;;
3791;SDS011;1911;53.768;11.474;2023-02-15T10:31:13;77.90;;;18.80;;
3791;SDS011;1911;53.768;11.474;2023-02-15T10:51:32;51.38;;;18.67;;
3791;SDS011;1911;53.768;11.474;2023-02-15T10:54:12;41.87;;;15.33;;
3791;SDS011;1911;53.768;11.474;2023-02-15T11:00:05;97.50;;;21.73;;
3791;SDS011;1911;53.768;11.474;2023-02-15T11:03:12;60.37;;;18.70;;
3791;SDS011;1911;53.768;11.474;2023-02-15T11:08:15;69.90;;;18.77;;
3791;SDS011;1911;53.768;11.474;2023-02-15T11:10:44;87.03;;;20.70;;
3791;SDS011;1911;53.768;11.474;2023-02-15T11:13:17;64.50;;;18.20;;
3791;SDS011;1911;53.768;11.474;2023-02-15T11:15:59;73.27;;;23.10;;
3791;SDS011;1911;53.768;11.474;2023-02-15T11:18:33;47.17;;;18.30;;
3791;SDS011;1911;53.768;11.474;2023-02-15T11:21:03;54.90;;;17.43;;
3791;SDS011;1911;53.768;11.474;2023-02-15T11:23:40;42.87;;;16.30;;
3791;SDS011;1911;53.768;11.474;2023-02-15T11:31:34;82.30;;;21.60;;
3791;SDS011;1911;53.768;11.474;2023-02-15T11:34:18;68.03;;;20.20;;
3791;SDS011;1911;53.768;11.474;2023-02-15T11:36:49;70.70;;;21.43;;
3791;SDS011;1911;53.768;11.474;2023-02-15T11:39:18;61.00;;;19.60;;
3791;SDS011;1911;53.768;11.474;2023-02-15T11:41:46;60.27;;;23.57;;
3791;SDS011;1911;53.768;11.474;2023-02-15T11:44:32;79.40;;;22.23;;
3791;SDS011;1911;53.768;11.474;2023-02-15T11:47:02;53.23;;;18.30;;
3791;SDS011;1911;53.768;11.474;2023-02-15T11:49:34;58.00;;;20.73;;
3791;SDS011;1911;53.768;11.474;2023-02-15T11:52:00;49.37;;;21.17;;
3791;SDS011;1911;53.768;11.474;2023-02-15T11:54:34;69.63;;;22.33;;
3791;SDS011;1911;53.768;11.474;2023-02-15T11:59:44;53.43;;;23.57;;
3791;SDS011;1911;53.768;11.474;2023-02-15T12:02:21;68.87;;;21.80;;
3791;SDS011;1911;53.768;11.474;2023-02-15T12:04:54;54.73;;;19.97;;
3791;SDS011;1911;53.768;11.474;2023-02-15T12:07:31;56.67;;;21.50;;
3791;SDS011;1911;53.768;11.474;2023-02-15T12:10:20;49.20;;;20.50;;
3791;SDS011;1911;53.768;11.474;2023-02-15T12:13:08;49.53;;;21.13;;
3791;SDS011;1911;53.768;11.474;2023-02-15T12:15:44;81.73;;;22.73;;
3791;SDS011;1911;53.768;11.474;2023-02-15T12:21:05;61.13;;;23.47;;
3791;SDS011;1911;53.768;11.474;2023-02-15T12:23:39;63.40;;;24.40;;
3791;SDS011;1911;53.768;11.474;2023-02-15T12:50:29;52.10;;;20.67;;
3791;SDS011;1911;53.768;11.474;2023-02-15T12:53:08;55.87;;;19.80;;
3791;SDS011;1911;53.768;11.474;2023-02-15T12:58:19;59.80;;;24.77;;
3791;SDS011;1911;53.768;11.474;2023-02-15T13:00:50;57.13;;;22.60;;
3791;SDS011;1911;53.768;11.474;2023-02-15T13:03:26;48.10;;;21.03;;
3791;SDS011;1911;53.768;11.474;2023-02-15T13:05:53;37.50;;;17.93;;
3791;SDS011;1911;53.768;11.474;2023-02-15T13:08:21;47.50;;;20.33;;
3791;SDS011;1911;53.768;11.474;2023-02-15T13:10:53;48.00;;;21.63;;
3791;SDS011;1911;53.768;11.474;2023-02-15T13:13:22;38.77;;;17.97;;
3791;SDS011;1911;53.768;11.474;2023-02-15T13:15:52;46.10;;;17.63;;
3791;SDS011;1911;53.768;11.474;2023-02-15T13:18:28;43.33;;;19.77;;
3791;SDS011;1911;53.768;11.474;2023-02-15T13:21:16;38.23;;;19.73;;
3791;SDS011;1911;53.768;11.474;2023-02-15T13:24:32;46.77;;;20.07;;
3791;SDS011;1911;53.768;11.474;2023-02-15T13:26:43;49.93;;;23.60;;
3791;SDS011;1911;53.768;11.474;2023-02-15T13:29:44;49.53;;;23.87;;
3791;SDS011;1911;53.768;11.474;2023-02-15T13:32:10;43.73;;;21.03;;
3791;SDS011;1911;53.768;11.474;2023-02-15T13:34:44;46.67;;;20.90;;
3791;SDS011;1911;53.768;11.474;2023-02-15T13:40:07;45.53;;;21.80;;
3791;SDS011;1911;53.768;11.474;2023-02-15T13:43:40;37.37;;;20.33;;
3791;SDS011;1911;53.768;11.474;2023-02-15T13:46:21;44.27;;;20.63;;
3791;SDS011;1911;53.768;11.474;2023-02-15T13:49:10;52.10;;;21.23;;
3791;SDS011;1911;53.768;11.474;2023-02-15T13:57:33;40.00;;;18.13;;
3791;SDS011;1911;53.768;11.474;2023-02-15T14:14:01;42.60;;;18.83;;
3791;SDS011;1911;53.768;11.474;2023-02-15T14:16:53;39.33;;;18.60;;
3791;SDS011;1911;53.768;11.474;2023-02-15T14:19:30;55.80;;;21.03;;
3791;SDS011;1911;53.768;11.474;2023-02-15T14:25:15;43.90;;;21.50;;
3791;SDS011;1911;53.768;11.474;2023-02-15T14:27:54;48.90;;;22.30;;
3791;SDS011;1911;53.768;11.474;2023-02-15T14:30:23;41.97;;;18.33;;
3791;SDS011;1911;53.768;11.474;2023-02-15T14:36:04;46.67;;;21.67;;
3791;SDS011;1911;53.768;11.474;2023-02-15T14:41:11;48.10;;;20.87;;
3791;SDS011;1911;53.768;11.474;2023-02-15T14:48:48;48.23;;;22.50;;
3791;SDS011;1911;53.768;11.474;2023-02-15T15:26:22;47.77;;;22.50;;
3791;SDS011;1911;53.768;11.474;2023-02-15T15:48:38;52.90;;;23.93;;
3791;SDS011;1911;53.768;11.474;2023-02-15T15:51:47;69.13;;;22.50;;
3791;SDS011;1911;53.768;11.474;2023-02-15T15:54:23;66.53;;;22.20;;
3791;SDS011;1911;53.768;11.474;2023-02-15T15:56:55;56.10;;;22.17;;
3791;SDS011;1911;53.768;11.474;2023-02-15T15:59:30;72.47;;;23.47;;
3791;SDS011;1911;53.768;11.474;2023-02-15T16:02:07;74.70;;;25.30;;
3791;SDS011;1911;53.768;11.474;2023-02-15T16:04:36;61.90;;;24.30;;
3791;SDS011;1911;53.768;11.474;2023-02-15T16:07:20;82.90;;;25.83;;
3791;SDS011;1911;53.768;11.474;2023-02-15T16:10:00;62.80;;;23.13;;
3791;SDS011;1911;53.768;11.474;2023-02-15T16:12:29;79.37;;;24.47;;
3791;SDS011;1911;53.768;11.474;2023-02-15T16:14:57;50.27;;;23.73;;
3791;SDS011;1911;53.768;11.474;2023-02-15T16:17:26;60.60;;;23.50;;
3791;SDS011;1911;53.768;11.474;2023-02-15T16:20:01;70.00;;;26.03;;
3791;SDS011;1911;53.768;11.474;2023-02-15T16:22:38;92.67;;;23.20;;
3791;SDS011;1911;53.768;11.474;2023-02-15T16:28:07;115.00;;;25.40;;
3791;SDS011;1911;53.768;11.474;2023-02-15T16:30:43;103.93;;;23.03;;
3791;SDS011;1911;53.768;11.474;2023-02-15T16:41:05;90.83;;;22.17;;
3791;SDS011;1911;53.768;11.474;2023-02-15T16:43:48;134.03;;;25.60;;
3791;SDS011;1911;53.768;11.474;2023-02-15T16:46:15;147.10;;;28.20;;
3791;SDS011;1911;53.768;11.474;2023-02-15T16:48:45;94.23;;;25.57;;
3791;SDS011;1911;53.768;11.474;2023-02-15T16:51:18;76.37;;;23.97;;
3791;SDS011;1911;53.768;11.474;2023-02-15T16:53:47;131.47;;;27.90;;
3791;SDS011;1911;53.768;11.474;2023-02-15T16:56:13;103.25;;;26.55;;
3791;SDS011;1911;53.768;11.474;2023-02-15T16:58:41;105.23;;;26.27;;
3791;SDS011;1911;53.768;11.474;2023-02-15T17:01:10;100.33;;;23.50;;
3791;SDS011;1911;53.768;11.474;2023-02-15T17:03:39;133.77;;;29.93;;
3791;SDS011;1911;53.768;11.474;2023-02-15T17:06:26;121.00;;;25.70;;
3791;SDS011;1911;53.768;11.474;2023-02-15T17:08:56;143.83;;;26.90;;
3791;SDS011;1911;53.768;11.474;2023-02-15T17:11:34;115.13;;;26.80;;
3791;SDS011;1911;53.768;11.474;2023-02-15T17:17:47;116.33;;;26.47;;
3791;SDS011;1911;53.768;11.474;2023-02-15T17:19:59;119.70;;;25.57;;
3791;SDS011;1911;53.768;11.474;2023-02-15T17:22:56;91.37;;;22.70;;
3791;SDS011;1911;53.768;11.474;2023-02-15T17:25:48;89.83;;;22.57;;
3791;SDS011;1911;53.768;11.474;2023-02-15T17:28:19;110.43;;;23.50;;
3791;SDS011;1911;53.768;11.474;2023-02-15T17:31:22;104.53;;;23.37;;
3791;SDS011;1911;53.768;11.474;2023-02-15T17:43:24;128.77;;;27.73;;
3791;SDS011;1911;53.768;11.474;2023-02-15T17:46:17;87.60;;;23.93;;
3791;SDS011;1911;53.768;11.474;2023-02-15T17:48:49;148.57;;;30.17;;
3791;SDS011;1911;53.768;11.474;2023-02-15T17:51:29;132.37;;;26.83;;
3791;SDS011;1911;53.768;11.474;2023-02-15T17:53:56;154.80;;;25.93;;
3791;SDS011;1911;53.768;11.474;2023-02-15T17:56:43;92.20;;;25.77;;
3791;SDS011;1911;53.768;11.474;2023-02-15T17:59:09;173.70;;;31.47;;
3791;SDS011;1911;53.768;11.474;2023-02-15T18:01:51;130.25;;;29.05;;
3791;SDS011;1911;53.768;11.474;2023-02-15T18:04:52;124.87;;;24.90;;
3791;SDS011;1911;53.768;11.474;2023-02-15T18:11:43;186.67;;;33.10;;
3791;SDS011;1911;53.768;11.474;2023-02-15T18:14:51;144.20;;;29.17;;
3791;SDS011;1911;53.768;11.474;2023-02-15T18:17:37;191.50;;;33.23;;
3791;SDS011;1911;53.768;11.474;2023-02-15T18:20:06;126.83;;;33.57;;
3791;SDS011;1911;53.768;11.474;2023-02-15T18:26:05;166.20;;;32.20;;
3791;SDS011;1911;53.768;11.474;2023-02-15T18:28:34;124.28;;;28.08;;
3791;SDS011;1911;53.768;11.474;2023-02-15T18:31:44;167.30;;;29.90;;
3791;SDS011;1911;53.768;11.474;2023-02-15T18:34:57;151.27;;;28.50;;
3791;SDS011;1911;53.768;11.474;2023-02-15T18:41:18;138.70;;;28.20;;
3791;SDS011;1911;53.768;11.474;2023-02-15T18:43:45;140.00;;;29.27;;
3791;SDS011;1911;53.768;11.474;2023-02-15T18:46:12;173.97;;;33.00;;
3791;SDS011;1911;53.768;11.474;2023-02-15T18:48:39;112.17;;;27.53;;
3791;SDS011;1911;53.768;11.474;2023-02-15T18:51:07;82.17;;;23.07;;
3791;SDS011;1911;53.768;11.474;2023-02-15T18:53:41;107.83;;;28.13;;
3791;SDS011;1911;53.768;11.474;2023-02-15T18:56:08;102.43;;;26.53;;
3791;SDS011;1911;53.768;11.474;2023-02-15T18:58:39;114.22;;;24.88;;
3791;SDS011;1911;53.768;11.474;2023-02-15T19:01:10;102.83;;;28.27;;
3791;SDS011;1911;53.768;11.474;2023-02-15T19:03:42;66.37;;;20.20;;
3791;SDS011;1911;53.768;11.474;2023-02-15T19:06:10;99.87;;;23.73;;
3791;SDS011;1911;53.768;11.474;2023-02-15T19:08:39;121.82;;;24.55;;
3791;SDS011;1911;53.768;11.474;2023-02-15T19:11:13;101.07;;;26.40;;
3791;SDS011;1911;53.768;11.474;2023-02-15T19:13:51;108.23;;;24.37;;
3791;SDS011;1911;53.768;11.474;2023-02-15T19:16:32;69.93;;;19.50;;
3791;SDS011;1911;53.768;11.474;2023-02-15T19:18:59;62.67;;;21.20;;
3791;SDS011;1911;53.768;11.474;2023-02-15T19:21:29;85.80;;;22.03;;
3791;SDS011;1911;53.768;11.474;2023-02-15T19:23:57;84.93;;;20.85;;
3791;SDS011;1911;53.768;11.474;2023-02-15T19:26:28;75.87;;;18.37;;
3791;SDS011;1911;53.768;11.474;2023-02-15T19:28:56;92.90;;;21.73;;
3791;SDS011;1911;53.768;11.474;2023-02-15T19:31:25;83.77;;;20.53;;
3791;SDS011;1911;53.768;11.474;2023-02-15T19:33:53;51.00;;;17.55;;
3791;SDS011;1911;53.768;11.474;2023-02-15T19:36:18;79.07;;;19.87;;
3791;SDS011;1911;53.768;11.474;2023-02-15T19:38:47;109.07;;;23.30;;
3791;SDS011;1911;53.768;11.474;2023-02-15T19:41:26;91.65;;;20.33;;
3791;SDS011;1911;53.768;11.474;2023-02-15T19:43:55;88.55;;;20.13;;
3791;SDS011;1911;53.768;11.474;2023-02-15T19:46:22;83.88;;;21.05;;
3791;SDS011;1911;53.768;11.474;2023-02-15T19:48:49;82.13;;;20.07;;
3791;SDS011;1911;53.768;11.474;2023-02-15T19:51:35;100.80;;;20.65;;
3791;SDS011;1911;53.768;11.474;2023-02-15T20:00:16;108.57;;;22.58;;
3791;SDS011;1911;53.768;11.474;2023-02-15T20:02:44;119.30;;;24.95;;
3791;SDS011;1911;53.768;11.474;2023-02-15T20:05:09;108.93;;;27.67;;
3791;SDS011;1911;53.768;11.474;2023-02-15T20:07:35;115.97;;;22.80;;
3791;SDS011;1911;53.768;11.474;2023-02-15T20:10:01;109.30;;;22.43;;
3791;SDS011;1911;53.768;11.474;2023-02-15T20:12:30;112.93;;;24.17;;
3791;SDS011;1911;53.768;11.474;2023-02-15T20:15:01;158.87;;;29.13;;
3791;SDS011;1911;53.768;11.474;2023-02-15T20:17:41;136.52;;;24.98;;
3791;SDS011;1911;53.768;11.474;2023-02-15T20:20:07;68.40;;;20.40;;
3791;SDS011;1911;53.768;11.474;2023-02-15T20:22:33;157.83;;;27.73;;
3791;SDS011;1911;53.768;11.474;2023-02-15T20:24:58;113.67;;;23.00;;
3791;SDS011;1911;53.768;11.474;2023-02-15T20:27:25;119.27;;;22.70;;
3791;SDS011;1911;53.768;11.474;2023-02-15T20:29:51;217.17;;;32.20;;
3791;SDS011;1911;53.768;11.474;2023-02-15T20:32:20;101.50;;;24.10;;
3791;SDS011;1911;53.768;11.474;2023-02-15T20:34:46;109.93;;;24.70;;
3791;SDS011;1911;53.768;11.474;2023-02-15T20:37:30;116.80;;;23.53;;
3791;SDS011;1911;53.768;11.474;2023-02-15T20:39:56;174.07;;;23.50;;
3791;SDS011;1911;53.768;11.474;2023-02-15T20:42:22;93.13;;;22.27;;
3791;SDS011;1911;53.768;11.474;2023-02-15T20:44:47;131.60;;;27.80;;
3791;SDS011;1911;53.768;11.474;2023-02-15T20:47:15;84.45;;;22.90;;
3791;SDS011;1911;53.768;11.474;2023-02-15T20:49:41;102.60;;;28.03;;
3791;SDS011;1911;53.768;11.474;2023-02-15T20:55:00;85.78;;;22.20;;
3791;SDS011;1911;53.768;11.474;2023-02-15T20:57:26;121.63;;;24.63;;
3791;SDS011;1911;53.768;11.474;2023-02-15T20:59:51;85.03;;;22.70;;